Pagrindinis puslapis
METAR-TAF:

METAR-TAF

Oro uostai :

Erzindžanas, Turkija

platuma: 39-44N, ilguma: 039-30E, Aukštis: 1156 m

Dabartinis oras

Ataskaita buvo paskelbta 50 minutes, ne 21:50 UTC
Vėjas 5 kt iš Vakarų
Temperatūra 10°C
Drėgmė 62%
Slėgis 1014 hPa
Matomumas 10 km arba daugiau
nėra debesų žemiau 1500 m ir nėra kamuolinių lietaus debesų

METAR: LTCD 172150Z 26005KT CAVOK 10/03 Q1014 NOSIG

Laikas: 01:40 (22:40 UTC)

Prognozė

Ataskaita buvo paskelbta 3 valandos ir 0 minutes, ne 19:40 UTC
Prognozė galioja nuo 17 metu 21 UTC su 18 metu 06 UTC
Vėjas 5 kt iš Vakarų
Matomumas 10 km arba daugiau
nėra debesų žemiau 1500 m ir nėra kamuolinių lietaus debesų

TAF: LTCD 171940Z 1721/1806 26005KT CAVOK

Orai ataskaitas ir orų prognozės (METAR, TAF).

turimą stotys yra geltonos ir raudonos taškus žemėlapyje.

Perkelti pele per norėdami pamatyti stoties vardą.

Tada spustelėkite, norėdami matyti oro stebėjimo ir prognozės.

Norėdami pakeisti žemėlapį: spustelėkite ant žalios mygtukų su juodo kryžiaus žemyn,; žalią mygtuką su brūkšneliu, jei norite nutolinti; arba žalių rodyklių gretimoms žemėlapius.


METAR-TAF: